Kezdőlap
METAR-TAF:

METAR-TAF

Repülőterek :

Pamplona, Spanyolország

földrajzi szélesség: 42-46N, földrajzi hosszúság: 001-38W, magasság: 459 m

Jelenlegi meteorológiai megfigyelések

A jelentés 11 perccel ezelõtt készült, 08:30 UTC
Észak-északnyugati szél 10 kt, nyugat-északnyugati és észak-északkeleti között változik
Hőmérséklet 0°C
Páratartalom 69%
Légköri nyomás 1030 hPa
Látótávolság 10 km, vagy több
Szórványos felhőzet 3500 lábon

METAR: LEPP 200830Z 34010KT 300V020 9999 SCT035 00/M05 Q1030

Idő: 09:41 (08:41 UTC)

Előrejelzés

A jelentés 41 perccel ezelõtt készült, 08:00 UTC
Az előrejelzés 20-én 09 óra UTC és 21-én 09 óra UTC között érvényes
Északi szél 12 kt
Látótávolság 10 km, vagy több
Szórványos felhőzet 3000 lábon
20-én 09 óra UTC és 20-én 18 óra UTC között ideiglenes
Északi szél 15 kt széllökések: 25 kt

TAF: LEPP 200800Z 2009/2109 01012KT 9999 SCT030 TX05/2015Z TNM00/2106Z TEMPO 2009/2018 36015G25KT

Meteorológiai megfigyelések és előrejelzések több, mint 4000 repülőtéren (METAR és TAF jelentéseket).

A térképen piros és sárga pontok jelzik az elérhető meteorológiai állomásokat.

Mozgassa az egeret a pont fölött, hogy megjelenjen az állomás neve.

Azután kattintson az időjárási megfigyelések és előrejelzések megtekintéséhez.

A térkép megváltoztatása: kattintson a fekete keresztel jelölt zöld gombra ráközelítéshez, a vonallal jelölt zöld gombra távolításhoz, vagy a zöld nyilakra a szomszédos térképek eléréséhez.


METAR-TAF: